createdAt,value
2019-03-20T00:02:11.586Z,9.60
2019-03-20T00:04:37.729Z,9.60
2019-03-20T00:07:04.220Z,9.70
2019-03-20T00:09:30.474Z,9.70
2019-03-20T00:11:56.651Z,9.70
2019-03-20T00:14:22.795Z,9.70
2019-03-20T00:16:48.979Z,9.70
2019-03-20T00:19:15.132Z,9.70
2019-03-20T00:21:41.293Z,9.70
2019-03-20T00:24:07.453Z,9.70
2019-03-20T00:26:33.629Z,9.70
2019-03-20T00:28:59.790Z,9.70
2019-03-20T00:31:26.052Z,9.60
2019-03-20T00:33:52.223Z,9.60
2019-03-20T00:36:18.365Z,9.60
2019-03-20T00:38:44.502Z,9.60
2019-03-20T00:41:10.693Z,9.60
2019-03-20T00:43:36.850Z,9.60
2019-03-20T00:46:03.125Z,9.60
2019-03-20T00:48:29.575Z,9.60
2019-03-20T00:50:55.731Z,9.60
2019-03-20T00:53:22.119Z,9.60
2019-03-20T00:55:48.285Z,9.60
2019-03-20T00:58:14.739Z,9.60
2019-03-20T01:00:40.914Z,9.60
2019-03-20T01:03:07.058Z,9.60
2019-03-20T01:05:33.250Z,9.60
2019-03-20T01:07:59.384Z,9.60
2019-03-20T01:10:25.534Z,9.60
2019-03-20T01:12:51.714Z,9.60
2019-03-20T01:15:18.060Z,9.60
2019-03-20T01:17:44.971Z,9.70
2019-03-20T01:20:16.424Z,9.70
2019-03-20T01:22:42.594Z,9.70
2019-03-20T01:25:09.643Z,9.70
2019-03-20T01:27:35.822Z,9.70
2019-03-20T01:30:04.901Z,9.70
2019-03-20T01:32:31.336Z,9.70
2019-03-20T01:34:57.518Z,9.70
2019-03-20T01:37:23.678Z,9.70
2019-03-20T01:39:49.870Z,9.70
2019-03-20T01:42:16.045Z,9.70
2019-03-20T01:44:42.191Z,9.60
2019-03-20T01:47:08.361Z,9.70
2019-03-20T01:49:34.499Z,9.60
2019-03-20T01:52:00.655Z,9.60
2019-03-20T01:54:26.834Z,9.60
2019-03-20T01:56:53.010Z,9.70
2019-03-20T01:59:19.174Z,9.60
2019-03-20T02:01:45.347Z,9.60
2019-03-20T02:04:11.470Z,9.60
2019-03-20T02:06:37.920Z,9.60
2019-03-20T02:09:05.099Z,9.60
2019-03-20T02:11:31.295Z,9.60
2019-03-20T02:13:57.759Z,9.50
2019-03-20T02:16:23.901Z,9.50
2019-03-20T02:18:50.065Z,9.50
2019-03-20T02:21:16.208Z,9.40
2019-03-20T02:23:42.457Z,9.40
2019-03-20T02:26:08.600Z,9.40
2019-03-20T02:28:34.781Z,9.30
2019-03-20T02:31:01.594Z,9.30
2019-03-20T02:33:27.741Z,9.30
2019-03-20T02:35:53.884Z,9.20
2019-03-20T02:38:20.058Z,9.20
2019-03-20T02:40:46.200Z,9.20
2019-03-20T02:43:12.373Z,9.20
2019-03-20T02:45:38.895Z,9.10
2019-03-20T02:48:05.094Z,9.00
2019-03-20T02:50:31.212Z,9.00
2019-03-20T02:52:57.360Z,8.90
2019-03-20T02:55:23.532Z,8.90
2019-03-20T02:57:49.668Z,8.80
2019-03-20T03:00:19.316Z,8.80
2019-03-20T03:02:45.822Z,8.70
2019-03-20T03:05:13.011Z,8.60
2019-03-20T03:07:39.494Z,8.50
2019-03-20T03:10:12.511Z,8.50
2019-03-20T03:12:38.736Z,8.40
2019-03-20T03:15:08.737Z,8.30
2019-03-20T03:17:34.901Z,8.30
2019-03-20T03:20:02.176Z,8.30
2019-03-20T03:22:28.777Z,8.20
2019-03-20T03:24:54.906Z,8.10
2019-03-20T03:27:21.056Z,8.10
2019-03-20T03:29:47.195Z,8.00
2019-03-20T03:32:13.399Z,8.00
2019-03-20T03:34:39.572Z,7.90
2019-03-20T03:37:05.720Z,7.90
2019-03-20T03:39:31.902Z,7.80
2019-03-20T03:41:57.997Z,7.80
2019-03-20T03:44:24.150Z,7.70
2019-03-20T03:46:50.296Z,7.70
2019-03-20T03:49:16.471Z,7.60
2019-03-20T03:51:42.612Z,7.60
2019-03-20T03:54:08.816Z,7.50
2019-03-20T03:56:34.952Z,7.50
2019-03-20T03:59:01.115Z,7.40
2019-03-20T04:01:27.243Z,7.40
2019-03-20T04:03:53.424Z,7.40
2019-03-20T04:06:19.618Z,7.30
2019-03-20T04:08:45.814Z,7.30
2019-03-20T04:11:11.952Z,7.20
2019-03-20T04:13:38.121Z,7.20
2019-03-20T04:16:04.304Z,7.10
2019-03-20T04:18:30.503Z,7.10
2019-03-20T04:20:56.643Z,7.00
2019-03-20T04:23:22.840Z,7.00
2019-03-20T04:25:48.958Z,7.00
2019-03-20T04:28:15.151Z,6.90
2019-03-20T04:30:41.312Z,6.90
2019-03-20T04:33:07.459Z,6.90
2019-03-20T04:35:33.613Z,6.80
2019-03-20T04:37:59.747Z,6.80
2019-03-20T04:40:25.928Z,6.70
2019-03-20T04:42:52.077Z,6.80
2019-03-20T04:45:18.234Z,6.70
2019-03-20T04:47:44.367Z,6.70
2019-03-20T04:50:14.959Z,6.70
2019-03-20T04:52:41.090Z,6.70
2019-03-20T04:55:08.194Z,6.70
2019-03-20T04:57:34.677Z,6.70
2019-03-20T05:00:00.869Z,6.70
2019-03-20T05:02:27.004Z,6.70
2019-03-20T05:04:53.202Z,6.60
2019-03-20T05:07:19.359Z,6.60
2019-03-20T05:09:45.529Z,6.60
2019-03-20T05:12:11.687Z,6.50
2019-03-20T05:14:37.866Z,6.50
2019-03-20T05:17:04.000Z,6.50
2019-03-20T05:19:30.431Z,6.40
2019-03-20T05:21:56.578Z,6.40
2019-03-20T05:24:22.822Z,6.40
2019-03-20T05:26:48.987Z,6.40
2019-03-20T05:29:15.147Z,6.40
2019-03-20T05:31:41.390Z,6.40
2019-03-20T05:34:07.567Z,6.40
2019-03-20T05:36:33.689Z,6.50
2019-03-20T05:39:00.185Z,6.40
2019-03-20T05:41:26.321Z,6.50
2019-03-20T05:43:52.468Z,6.60
2019-03-20T05:46:18.657Z,6.60
2019-03-20T05:48:44.817Z,6.80
2019-03-20T05:51:10.975Z,6.90
2019-03-20T05:53:37.133Z,7.10
2019-03-20T05:56:03.391Z,7.30
2019-03-20T05:58:29.557Z,7.50
2019-03-20T06:00:55.759Z,7.80
2019-03-20T06:03:22.344Z,8.10
2019-03-20T06:05:53.642Z,8.40
2019-03-20T06:08:19.786Z,8.70
2019-03-20T06:10:45.953Z,9.10
2019-03-20T06:13:12.087Z,9.50
2019-03-20T06:15:38.245Z,9.90
2019-03-20T06:18:04.645Z,10.40
2019-03-20T06:20:30.827Z,10.80
2019-03-20T06:22:56.964Z,11.30
2019-03-20T06:25:23.132Z,11.80
2019-03-20T06:27:49.281Z,12.30
2019-03-20T06:30:17.077Z,12.80
2019-03-20T06:32:43.244Z,13.30
2019-03-20T06:35:09.802Z,13.80
2019-03-20T06:37:35.947Z,14.30
2019-03-20T06:40:05.211Z,14.80
2019-03-20T06:42:31.380Z,15.20
2019-03-20T06:44:57.564Z,15.70
2019-03-20T06:47:23.713Z,16.10
2019-03-20T06:49:49.872Z,16.50
2019-03-20T06:52:16.030Z,17.00
2019-03-20T06:54:42.165Z,17.40
2019-03-20T06:57:08.345Z,17.90
2019-03-20T06:59:40.193Z,18.30
2019-03-20T07:02:06.664Z,18.70
2019-03-20T07:05:03.917Z,19.10
2019-03-20T07:07:43.525Z,19.50
2019-03-20T07:10:22.997Z,20.00
2019-03-20T07:12:49.183Z,20.40
2019-03-20T07:15:15.324Z,20.80
2019-03-20T07:17:41.524Z,21.20
2019-03-20T07:20:09.762Z,21.60
2019-03-20T07:22:35.952Z,22.00
2019-03-20T07:25:02.928Z,22.50
2019-03-20T07:27:29.080Z,22.90
2019-03-20T07:29:57.324Z,23.90
2019-03-20T07:32:23.561Z,23.90
2019-03-20T07:34:49.715Z,24.40
2019-03-20T07:37:15.879Z,24.90
2019-03-20T07:39:42.014Z,25.40
2019-03-20T07:42:08.189Z,25.90
2019-03-20T07:44:34.336Z,26.30
2019-03-20T07:47:00.501Z,26.70
2019-03-20T07:49:26.639Z,27.20
2019-03-20T07:51:52.826Z,27.60
2019-03-20T07:54:19.246Z,27.90
2019-03-20T07:56:45.421Z,28.40
2019-03-20T07:59:11.555Z,28.70
2019-03-20T08:01:37.733Z,29.00
2019-03-20T08:04:03.888Z,29.30
2019-03-20T08:06:30.077Z,29.50
2019-03-20T08:08:56.245Z,29.70
2019-03-20T08:11:22.695Z,29.80
2019-03-20T08:13:48.834Z,30.00
2019-03-20T08:16:15.833Z,30.20
2019-03-20T08:18:41.977Z,30.40
2019-03-20T08:21:08.108Z,30.60
2019-03-20T08:23:34.314Z,30.70
2019-03-20T08:26:00.465Z,31.00
2019-03-20T08:28:26.614Z,31.00
2019-03-20T08:30:52.791Z,31.20
2019-03-20T08:33:18.931Z,31.30
2019-03-20T08:35:45.107Z,31.30
2019-03-20T08:38:18.170Z,31.30
2019-03-20T08:40:39.311Z,31.40
2019-03-20T08:43:05.484Z,31.50
2019-03-20T08:45:31.627Z,31.70
2019-03-20T08:47:57.788Z,31.90
2019-03-20T08:50:24.750Z,32.10
2019-03-20T08:52:50.918Z,32.20
2019-03-20T08:55:18.452Z,32.30
2019-03-20T08:57:45.108Z,32.40
2019-03-20T09:00:20.458Z,32.40
2019-03-20T09:02:46.806Z,32.40
2019-03-20T09:05:13.547Z,32.50
2019-03-20T09:07:47.179Z,32.50
2019-03-20T09:10:17.258Z,32.60
2019-03-20T09:12:43.435Z,32.70
2019-03-20T09:15:12.818Z,32.80
2019-03-20T09:17:38.972Z,32.90
2019-03-20T09:20:10.443Z,33.00
2019-03-20T09:22:36.604Z,33.00
2019-03-20T09:25:07.551Z,33.10
2019-03-20T09:27:33.737Z,33.20
2019-03-20T09:30:00.361Z,33.20
2019-03-20T09:32:26.758Z,33.20
2019-03-20T09:34:52.914Z,33.10
2019-03-20T09:37:25.696Z,33.00
2019-03-20T09:39:51.839Z,32.90
2019-03-20T09:42:17.985Z,32.80
2019-03-20T09:44:44.154Z,32.70
2019-03-20T09:47:10.328Z,32.70
2019-03-20T09:49:36.495Z,32.70
2019-03-20T09:52:02.774Z,32.60
2019-03-20T09:54:28.921Z,32.60
2019-03-20T09:56:55.056Z,32.70
2019-03-20T09:59:21.228Z,32.80
2019-03-20T10:01:47.353Z,32.80
2019-03-20T10:04:13.526Z,32.80
2019-03-20T10:06:39.718Z,32.80
2019-03-20T10:09:06.916Z,32.70
2019-03-20T10:11:33.039Z,32.70
2019-03-20T10:13:59.546Z,32.80
2019-03-20T10:16:25.677Z,32.80
2019-03-20T10:18:51.885Z,32.80
2019-03-20T10:21:18.011Z,32.70
2019-03-20T10:23:44.181Z,32.60
2019-03-20T10:26:10.323Z,32.50
2019-03-20T10:28:36.495Z,32.50
2019-03-20T10:31:02.665Z,32.60
2019-03-20T10:33:28.831Z,32.80
2019-03-20T10:35:55.248Z,32.80
2019-03-20T10:38:21.707Z,32.80
2019-03-20T10:40:47.851Z,32.80
2019-03-20T10:43:14.007Z,32.70
2019-03-20T10:45:40.132Z,32.50
2019-03-20T10:48:06.303Z,32.20
2019-03-20T10:50:32.514Z,31.90
2019-03-20T10:52:58.686Z,31.80
2019-03-20T10:55:24.854Z,31.80
2019-03-20T10:57:51.080Z,31.90
2019-03-20T11:00:27.679Z,31.90
2019-03-20T11:02:53.920Z,32.00
2019-03-20T11:05:20.402Z,32.00
2019-03-20T11:07:46.964Z,32.00
2019-03-20T11:10:24.033Z,32.00
2019-03-20T11:12:50.571Z,32.10
2019-03-20T11:15:18.540Z,32.10
2019-03-20T11:17:44.681Z,32.20
2019-03-20T11:20:16.529Z,32.20
2019-03-20T11:22:42.776Z,32.20
2019-03-20T11:25:21.587Z,32.10
2019-03-20T11:27:47.847Z,32.10
2019-03-20T11:30:29.820Z,32.10
2019-03-20T11:32:56.155Z,32.20
2019-03-20T11:35:22.414Z,32.20
2019-03-20T11:37:48.947Z,32.20
2019-03-20T11:40:19.524Z,32.20
2019-03-20T11:42:46.123Z,32.30
2019-03-20T11:45:12.682Z,32.20
2019-03-20T11:47:38.826Z,32.20
2019-03-20T11:50:24.853Z,32.10
2019-03-20T11:52:51.003Z,32.00
2019-03-20T11:55:17.206Z,31.90
2019-03-20T11:57:43.476Z,31.90
2019-03-20T12:00:14.240Z,31.80
2019-03-20T12:02:40.367Z,31.70
2019-03-20T12:05:07.327Z,31.70
2019-03-20T12:07:33.479Z,31.50
2019-03-20T12:09:59.635Z,31.40
2019-03-20T12:12:25.784Z,31.30
2019-03-20T12:14:51.946Z,31.20
2019-03-20T12:17:20.151Z,31.10
2019-03-20T12:19:46.147Z,31.00
2019-03-20T12:22:12.318Z,31.00
2019-03-20T12:24:38.456Z,30.90
2019-03-20T12:27:14.599Z,30.90
2019-03-20T12:29:33.038Z,30.90
2019-03-20T12:31:59.227Z,30.80
2019-03-20T12:34:25.404Z,30.80
2019-03-20T12:36:51.597Z,30.80
2019-03-20T12:39:17.727Z,30.80
2019-03-20T12:41:43.889Z,30.70
2019-03-20T12:44:10.075Z,30.70
2019-03-20T12:46:41.697Z,30.60
2019-03-20T12:49:04.281Z,30.60
2019-03-20T12:51:30.447Z,30.50
2019-03-20T12:53:56.885Z,30.30
2019-03-20T12:56:23.119Z,30.20
2019-03-20T12:58:49.299Z,30.10
2019-03-20T13:01:15.473Z,29.90
2019-03-20T13:03:41.639Z,29.70
2019-03-20T13:06:07.797Z,29.50
2019-03-20T13:08:34.225Z,29.30
2019-03-20T13:11:00.374Z,29.20
2019-03-20T13:13:26.502Z,29.10
2019-03-20T13:15:52.670Z,28.90
2019-03-20T13:18:19.661Z,28.70
2019-03-20T13:20:45.817Z,28.60
2019-03-20T13:23:17.586Z,28.40
2019-03-20T13:25:43.763Z,28.30
2019-03-20T13:28:09.895Z,28.10
2019-03-20T13:30:53.256Z,28.00
2019-03-20T13:33:25.609Z,27.80
2019-03-20T13:35:47.519Z,27.60
2019-03-20T13:38:13.649Z,27.30
2019-03-20T13:40:39.831Z,27.10
2019-03-20T13:43:05.974Z,26.90
2019-03-20T13:45:32.139Z,26.70
2019-03-20T13:47:58.284Z,26.50
2019-03-20T13:50:24.438Z,26.30
2019-03-20T13:52:50.567Z,26.10
2019-03-20T13:55:16.751Z,25.90
2019-03-20T13:57:43.228Z,25.70
2019-03-20T14:00:25.108Z,25.50
2019-03-20T14:02:51.261Z,25.30
2019-03-20T14:05:17.490Z,25.10
2019-03-20T14:07:43.660Z,25.00
2019-03-20T14:10:24.925Z,24.80
2019-03-20T14:12:45.638Z,24.60
2019-03-20T14:15:14.393Z,24.40
2019-03-20T14:17:40.554Z,24.20
2019-03-20T14:20:15.024Z,23.90
2019-03-20T14:22:41.197Z,23.70
2019-03-20T14:25:10.225Z,23.50
2019-03-20T14:27:36.429Z,23.30
2019-03-20T14:30:08.258Z,23.10
2019-03-20T14:32:34.607Z,22.90
2019-03-20T14:35:00.745Z,22.70
2019-03-20T14:37:26.912Z,22.50
2019-03-20T14:39:53.247Z,22.40
2019-03-20T14:42:19.472Z,22.20
2019-03-20T14:44:45.617Z,22.00
2019-03-20T14:47:11.818Z,21.90
2019-03-20T14:49:37.981Z,21.80
2019-03-20T14:52:04.146Z,21.70
2019-03-20T14:54:30.278Z,21.60
2019-03-20T14:56:56.457Z,21.50
2019-03-20T14:59:22.593Z,21.30
2019-03-20T15:01:48.777Z,21.20
2019-03-20T15:04:14.925Z,21.10
2019-03-20T15:06:41.123Z,21.00
2019-03-20T15:09:07.294Z,20.90
2019-03-20T15:11:33.437Z,20.80
2019-03-20T15:13:59.602Z,20.70
2019-03-20T15:16:25.794Z,20.60
2019-03-20T15:18:51.929Z,20.60
2019-03-20T15:21:18.081Z,20.50
2019-03-20T15:23:44.252Z,20.40
2019-03-20T15:26:10.412Z,20.30
2019-03-20T15:28:36.580Z,20.20
2019-03-20T15:31:02.816Z,20.10
2019-03-20T15:33:29.046Z,20.00
2019-03-20T15:35:55.203Z,19.90
2019-03-20T15:38:21.353Z,19.80
2019-03-20T15:40:55.875Z,19.80
2019-03-20T15:43:16.173Z,19.70
2019-03-20T15:45:42.328Z,19.60
2019-03-20T15:48:08.506Z,19.50
2019-03-20T15:50:34.998Z,19.50
2019-03-20T15:53:01.175Z,19.40
2019-03-20T15:55:40.004Z,19.30
2019-03-20T15:58:06.184Z,19.30
2019-03-20T16:00:32.732Z,19.20
2019-03-20T16:03:22.013Z,19.10
2019-03-20T16:05:48.516Z,19.00
2019-03-20T16:08:14.687Z,18.90
2019-03-20T16:10:41.211Z,18.80
2019-03-20T16:13:07.388Z,18.70
2019-03-20T16:15:33.621Z,18.60
2019-03-20T16:17:59.887Z,18.50
2019-03-20T16:20:26.174Z,18.40
2019-03-20T16:22:52.339Z,18.40
2019-03-20T16:25:21.387Z,18.30
2019-03-20T16:27:47.578Z,18.20
2019-03-20T16:30:21.691Z,18.10
2019-03-20T16:32:47.973Z,18.10
2019-03-20T16:35:14.233Z,18.00
2019-03-20T16:37:40.427Z,17.90
2019-03-20T16:40:11.676Z,17.80
2019-03-20T16:42:37.839Z,17.70
2019-03-20T16:45:12.533Z,17.70
2019-03-20T16:47:38.696Z,17.60
2019-03-20T16:50:09.984Z,17.50
2019-03-20T16:52:36.169Z,17.40
2019-03-20T16:55:04.416Z,17.40
2019-03-20T16:57:30.591Z,17.30
2019-03-20T16:59:56.720Z,17.20
2019-03-20T17:02:22.903Z,17.10
2019-03-20T17:04:49.064Z,17.00
2019-03-20T17:07:15.224Z,16.90
2019-03-20T17:09:41.489Z,16.90
2019-03-20T17:12:07.641Z,16.80
2019-03-20T17:14:34.145Z,16.70
2019-03-20T17:17:00.288Z,16.70
2019-03-20T17:19:26.483Z,16.60
2019-03-20T17:21:52.626Z,16.50
2019-03-20T17:24:18.799Z,16.40
2019-03-20T17:26:45.299Z,16.40
2019-03-20T17:29:13.575Z,16.30
2019-03-20T17:31:39.896Z,16.20
2019-03-20T17:34:06.102Z,16.10
2019-03-20T17:36:32.271Z,16.10
2019-03-20T17:38:58.685Z,16.00
2019-03-20T17:41:24.823Z,15.90
2019-03-20T17:43:51.278Z,15.80
2019-03-20T17:46:17.688Z,15.70
2019-03-20T17:48:43.844Z,15.60
2019-03-20T17:51:09.991Z,15.60
2019-03-20T17:53:36.140Z,15.50
2019-03-20T17:56:02.406Z,15.40
2019-03-20T17:58:28.528Z,15.40
2019-03-20T18:00:56.689Z,15.30
2019-03-20T18:03:22.855Z,15.20
2019-03-20T18:05:49.046Z,15.20
2019-03-20T18:08:15.190Z,15.10
2019-03-20T18:10:41.355Z,15.00
2019-03-20T18:13:07.598Z,14.90
2019-03-20T18:15:34.575Z,14.90
2019-03-20T18:18:00.730Z,14.80
2019-03-20T18:20:26.914Z,14.70
2019-03-20T18:22:53.057Z,14.70
2019-03-20T18:25:19.647Z,14.60
2019-03-20T18:27:46.062Z,14.50
2019-03-20T18:30:31.320Z,14.40
2019-03-20T18:32:57.537Z,14.40
2019-03-20T18:35:23.713Z,14.30
2019-03-20T18:37:50.159Z,14.20
2019-03-20T18:40:22.535Z,14.10
2019-03-20T18:42:48.652Z,14.10
2019-03-20T18:45:24.483Z,14.00
2019-03-20T18:47:50.843Z,13.90
2019-03-20T18:50:18.214Z,13.80
2019-03-20T18:52:44.347Z,13.80
2019-03-20T18:55:13.222Z,13.70
2019-03-20T18:57:39.374Z,13.60
2019-03-20T19:00:19.539Z,13.60
2019-03-20T19:02:45.789Z,13.50
2019-03-20T19:05:16.704Z,13.40
2019-03-20T19:07:42.834Z,13.40
2019-03-20T19:10:10.101Z,13.30
2019-03-20T19:12:36.305Z,13.20
2019-03-20T19:15:07.393Z,13.20
2019-03-20T19:17:33.541Z,13.10
2019-03-20T19:20:00.052Z,13.10
2019-03-20T19:22:26.200Z,13.00
2019-03-20T19:24:52.611Z,13.00
2019-03-20T19:27:18.723Z,12.90
2019-03-20T19:29:44.891Z,12.80
2019-03-20T19:32:11.073Z,12.80
2019-03-20T19:34:37.325Z,12.70
2019-03-20T19:37:03.633Z,12.70
2019-03-20T19:39:29.766Z,12.60
2019-03-20T19:41:55.940Z,12.60
2019-03-20T19:44:22.074Z,12.50
2019-03-20T19:46:48.281Z,12.50
2019-03-20T19:49:14.409Z,12.40
2019-03-20T19:51:40.611Z,12.40
2019-03-20T19:54:06.740Z,12.40
2019-03-20T19:56:32.917Z,12.30
2019-03-20T19:58:59.372Z,12.20
2019-03-20T20:01:25.553Z,12.20
2019-03-20T20:03:51.694Z,12.20
2019-03-20T20:06:18.186Z,12.10
2019-03-20T20:08:44.424Z,12.10
2019-03-20T20:11:10.606Z,12.00
2019-03-20T20:13:36.746Z,12.00
2019-03-20T20:16:03.352Z,12.00
2019-03-20T20:18:29.503Z,11.90
2019-03-20T20:20:55.661Z,11.90
2019-03-20T20:23:21.818Z,11.80
2019-03-20T20:25:47.989Z,11.80
2019-03-20T20:28:14.151Z,11.80
2019-03-20T20:30:40.328Z,11.70
2019-03-20T20:33:06.564Z,11.70
2019-03-20T20:35:33.031Z,11.70
2019-03-20T20:37:59.235Z,11.60
2019-03-20T20:40:27.488Z,11.60
2019-03-20T20:42:53.656Z,11.60
2019-03-20T20:45:19.818Z,11.60
2019-03-20T20:47:45.992Z,11.50
2019-03-20T20:50:16.161Z,11.50
2019-03-20T20:52:43.215Z,11.50
2019-03-20T20:55:21.107Z,11.50
2019-03-20T20:57:47.368Z,11.50
2019-03-20T21:00:20.685Z,11.40
2019-03-20T21:02:46.947Z,11.40
2019-03-20T21:05:13.404Z,11.40
2019-03-20T21:07:39.853Z,11.40
2019-03-20T21:10:14.290Z,11.30
2019-03-20T21:12:42.618Z,11.30
2019-03-20T21:15:35.232Z,11.30
2019-03-20T21:18:32.807Z,11.30
2019-03-20T21:20:59.290Z,11.30
2019-03-20T21:24:16.437Z,11.20
2019-03-20T21:27:06.089Z,11.20
2019-03-20T21:30:02.361Z,11.20
2019-03-20T21:32:44.958Z,11.10
2019-03-20T21:36:00.743Z,11.10
2019-03-20T21:38:27.107Z,11.00
2019-03-20T21:41:01.868Z,11.00
2019-03-20T21:43:54.548Z,11.00
2019-03-20T21:47:00.928Z,11.00
2019-03-20T21:49:27.088Z,10.90
2019-03-20T21:51:53.243Z,10.90
2019-03-20T21:54:51.418Z,10.80
2019-03-20T21:57:40.664Z,10.80
2019-03-20T22:00:37.948Z,10.80
2019-03-20T22:03:04.149Z,10.70
2019-03-20T22:05:53.944Z,10.70
2019-03-20T22:08:20.110Z,10.60
2019-03-20T22:11:29.854Z,10.60
2019-03-20T22:14:01.733Z,10.60
2019-03-20T22:17:10.932Z,10.50
2019-03-20T22:19:45.788Z,10.50
2019-03-20T22:22:37.309Z,10.40
2019-03-20T22:25:43.949Z,10.30
2019-03-20T22:28:27.534Z,10.30
2019-03-20T22:30:53.706Z,10.20
2019-03-20T22:34:16.421Z,10.20
2019-03-20T22:36:42.570Z,10.10
2019-03-20T22:39:17.213Z,10.10
2019-03-20T22:42:07.297Z,10.00
2019-03-20T22:44:36.040Z,10.00
2019-03-20T22:47:56.489Z,9.90
2019-03-20T22:50:40.312Z,9.90
2019-03-20T22:53:37.424Z,9.80
2019-03-20T22:56:33.238Z,9.80
2019-03-20T22:58:59.398Z,9.70
2019-03-20T23:01:39.509Z,9.70
2019-03-20T23:04:23.468Z,9.60
2019-03-20T23:06:49.626Z,9.60
2019-03-20T23:09:15.831Z,9.60
2019-03-20T23:11:41.975Z,9.60
2019-03-20T23:14:08.142Z,9.60
2019-03-20T23:16:34.285Z,9.60
2019-03-20T23:19:00.785Z,9.60
2019-03-20T23:21:27.160Z,9.60
2019-03-20T23:23:53.307Z,9.60
2019-03-20T23:26:19.496Z,9.60
2019-03-20T23:28:45.632Z,9.60
2019-03-20T23:31:11.786Z,9.60
2019-03-20T23:33:38.275Z,9.70
2019-03-20T23:36:04.532Z,9.70
2019-03-20T23:38:30.690Z,9.70
2019-03-20T23:40:56.862Z,9.80
2019-03-20T23:43:22.998Z,9.80
2019-03-20T23:45:49.206Z,9.90
2019-03-20T23:48:23.832Z,9.90
2019-03-20T23:51:01.563Z,10.00
2019-03-20T23:53:29.243Z,10.00
2019-03-20T23:55:55.412Z,10.00
2019-03-20T23:58:21.578Z,10.00
